Tuesday, January 17, 2017, 3:48 AM EST

KSEG, Selinsgrove Penn Valley Airport

Location: Selinsgrove, PA, United States Lat: 40.817
Local Time: 3:48 AM EST ( 8:48 GMT) Lon: -76.867
Time Zone: US/Eastern Elev: 449 ft

Show me the last for .
Show Decoded

2017-01-17 02:53 METAR KSEG 170753Z AUTO 00000KT 7SM OVC013 01/00 A3024 RMK AO2 SLP246 T00060000
                 =
2017-01-17 02:21 METAR KSEG 170721Z AUTO 00000KT 7SM OVC013 01/M01 A3025 RMK AO2 T00061006 =
2017-01-17 01:53 METAR KSEG 170653Z AUTO 00000KT 7SM OVC016 01/M01 A3025 RMK AO2 SLP249 T00111006
                 =
2017-01-17 00:53 METAR KSEG 170553Z AUTO 00000KT 7SM OVC018 01/M01 A3027 RMK AO2 SLP254 60000
                 T00111011 10017 20011 58011 =
2017-01-16 23:53 METAR KSEG 170453Z AUTO 00000KT 7SM OVC018 01/M01 A3028 RMK AO2 SLP258 T00111011
                 400221106 =
2017-01-16 22:53 METAR KSEG 170353Z AUTO 19003KT 8SM BKN020 OVC035 01/M02 A3030 RMK AO2 SLP265
                 T00111017 =
2017-01-16 22:50 METAR KSEG 170350Z AUTO 19003KT 8SM BKN021 OVC035 01/M02 A3030 RMK AO2 =
2017-01-16 21:53 METAR KSEG 170253Z AUTO 18003KT 8SM OVC041 01/M01 A3031 RMK AO2 SLP269 60000
                 T00111011 58009 =
2017-01-16 20:53 METAR KSEG 170153Z AUTO 00000KT 8SM FEW025 OVC047 01/M01 A3033 RMK AO2
                 RAB0055E21 SLP278 P0000 T00111011 =
2017-01-16 20:08 METAR KSEG 170108Z AUTO 18004KT 8SM -RA FEW026 OVC050 01/M02 A3033 RMK AO2
                 RAB0055 P0000 T00111022 =
2017-01-16 19:53 METAR KSEG 170053Z AUTO 00000KT 10SM BKN026 OVC048 02/M03 A3034 RMK AO2 SLP279
                 T00171033 =
2017-01-16 18:53 METAR KSEG 162353Z AUTO 00000KT 10SM OVC025 02/M03 A3034 RMK AO2 SLP279
                 T00171028 10022 20006 58007 =
2017-01-16 17:53 METAR KSEG 162253Z AUTO 21003KT 10SM OVC025 02/M04 A3034 RMK AO2 SLP281
                 T00171039 =
2017-01-16 16:53 METAR KSEG 162153Z AUTO 19003KT 10SM BKN023 OVC110 02/M04 A3036 RMK AO2 SLP286
                 T00221039 =
2017-01-16 15:53 METAR KSEG 162053Z AUTO 19003KT 10SM OVC022 02/M03 A3036 RMK AO2 SLP286
                 T00221033 55011 =
2017-01-16 14:53 METAR KSEG 161953Z AUTO 16005KT 10SM OVC019 02/M04 A3036 RMK AO2 SLP286
                 T00171039 =
2017-01-16 13:53 METAR KSEG 161853Z AUTO 16004KT 10SM OVC020 02/M04 A3036 RMK AO2 SLP288
                 T00171039 =
2017-01-16 12:53 METAR KSEG 161753Z AUTO 17004KT 9SM OVC020 01/M03 A3039 RMK AO2 SLP297 I6000
                 T00061033 10011 21100 58028 =
2017-01-16 12:42 METAR KSEG 161742Z AUTO 00000KT 8SM BKN022 01/M03 A3039 RMK AO2 T00061033 =
2017-01-16 11:53 METAR KSEG 161653Z AUTO 00000KT 6SM HZ CLR M01/M03 A3042 RMK AO2 SLP310
                 T10061033 =
2017-01-16 10:53 METAR KSEG 161553Z AUTO 00000KT 5SM BR CLR M04/M05 A3047 RMK AO2 SLP324
                 T10391050 =
2017-01-16 10:12 METAR KSEG 161512Z AUTO 00000KT 3SM BR CLR M06/M06 A3047 RMK AO2 T10561056 =
2017-01-16 09:53 METAR KSEG 161453Z AUTO 00000KT 2 1/2SM BR CLR M07/M07 A3047 RMK AO2 SLP328
                 I3000 T10671067 53005 =
2017-01-16 09:39 METAR KSEG 161439Z AUTO 00000KT 2SM BR SCT002 M07/M07 A3048 RMK AO2 T10671067 =
2017-01-16 09:22 METAR KSEG 161422Z AUTO 00000KT 1 1/4SM BR OVC002 M08/M08 A3048 RMK AO2
                 T10781078 =
2017-01-16 08:53 METAR KSEG 161353Z AUTO 00000KT 1/4SM FZFG VV002 M08/M08 A3047 RMK AO2 SLP325
                 T10831083 =
2017-01-16 07:53 METAR KSEG 161253Z AUTO 00000KT 1/2SM FZFG VV001 M09/M09 A3046 RMK AO2 SLP323
                 I1000 T10891089 =
2017-01-16 07:43 METAR KSEG 161243Z AUTO 00000KT 1/4SM FZFG VV001 M09/M09 A3046 RMK AO2 I1000
                 T10941094 =
2017-01-16 07:35 METAR KSEG 161235Z AUTO 00000KT 1SM BR VV001 M09/M09 A3046 RMK AO2 T10941094 =
2017-01-16 07:24 METAR KSEG 161224Z AUTO 00000KT 2SM BR OVC001 M09/M09 A3046 RMK AO2 VIS 1 1/2V2
                 1/2 T10941094 =
2017-01-16 06:53 METAR KSEG 161153Z AUTO 00000KT 6SM BR OVC002 M10/M11 A3046 RMK AO2 SLP323 I6000
                 T11001106 11078 21106 53006 =
2017-01-16 06:27 METAR KSEG 161127Z AUTO 00000KT 6SM BR BKN003 M11/M11 A3046 RMK AO2 T11061111 =
2017-01-16 06:13 METAR KSEG 161113Z AUTO 00000KT 6SM BR FEW003 M10/M11 A3046 RMK AO2 T11001111 =
2017-01-16 05:53 METAR KSEG 161053Z AUTO 00000KT 7SM CLR M11/M11 A3045 RMK AO2 SLP321 T11061111 =
2017-01-16 04:53 METAR KSEG 160953Z AUTO 33003KT 6SM BR CLR M10/M11 A3044 RMK AO2 SLP315
                 T11001106 =
2017-01-16 03:53 METAR KSEG 160853Z AUTO 00000KT 6SM BR CLR M09/M10 A3044 RMK AO2 SLP315 I3000
                 T10941100 50002 =

Support USWX by starting your Amazon purchase here.